Time;durP1;ratioP1;P1;durP2;ratioP2;P2;SDS_P1;SDS_P2;PMS_P1;PMS_P2;Temp;Humidity;BMP_temperature;BMP_pressure;BME280_temperature;BME280_humidity;BME280_pressure;Samples;Min_cycle;Max_cycle;Signal;HPM_P1;HPM_P2
2022/10/27 00:00:49;;;;;;;7.87;4.30;;;;;;;11.79;80.10;100611.92;1788073;77;21018;-79
2022/10/27 00:03:16;;;;;;;8.33;4.72;;;;;;;11.79;80.06;100607.95;1796309;77;20949;-79
2022/10/27 00:05:44;;;;;;;7.72;4.40;;;;;;;11.78;80.08;100610.73;1801639;77;21000;-79
2022/10/27 00:08:16;;;;;;;9.98;4.78;;;;;;;11.78;80.12;100609.41;1785231;79;20997;-79
2022/10/27 00:10:43;;;;;;;9.28;4.50;;;;;;;11.76;80.11;100618.28;1792729;78;21850;-79
2022/10/27 00:13:12;;;;;;;7.40;4.50;;;;;;;11.77;80.10;100617.80;1774456;79;21072;-79
2022/10/27 00:15:41;;;;;;;7.72;4.78;;;;;;;11.76;80.06;100611.66;1789482;78;21009;-79
2022/10/27 00:18:09;;;;;;;10.58;5.17;;;;;;;11.77;80.02;100621.77;1786864;79;20977;-79
2022/10/27 00:20:37;;;;;;;6.67;4.67;;;;;;;11.77;79.98;100615.15;1781246;78;21452;-79
2022/10/27 00:23:04;;;;;;;7.47;4.75;;;;;;;11.75;79.96;100620.56;1786714;79;21859;-79
2022/10/27 00:25:31;;;;;;;7.47;4.37;;;;;;;11.74;79.91;100619.38;1793811;78;21039;-79
2022/10/27 00:27:58;;;;;;;8.38;4.80;;;;;;;11.73;79.91;100625.63;1790971;79;21088;-79
2022/10/27 00:30:25;;;;;;;6.80;4.80;;;;;;;11.72;79.90;100622.15;1775226;78;21070;-79
2022/10/27 00:32:52;;;;;;;10.53;5.28;;;;;;;11.72;79.92;100627.44;1791195;78;21114;-79
2022/10/27 00:35:19;;;;;;;6.47;4.87;;;;;;;11.73;79.90;100626.47;1775239;78;21856;-79
2022/10/27 00:37:46;;;;;;;6.35;4.70;;;;;;;11.75;79.90;100630.31;1770386;79;21308;-79
2022/10/27 00:40:12;;;;;;;8.35;4.85;;;;;;;11.77;79.88;100627.05;1773838;79;20984;-79
2022/10/27 00:42:39;;;;;;;9.90;5.12;;;;;;;11.79;79.89;100633.09;1784391;78;21052;-79
2022/10/27 00:45:08;;;;;;;10.23;5.30;;;;;;;11.81;79.84;100634.31;1788365;79;20939;-79
2022/10/27 00:47:36;;;;;;;10.43;5.22;;;;;;;11.83;79.78;100635.03;1776864;79;21833;-77
2022/10/27 00:50:18;;;;;;;8.48;5.12;;;;;;;11.83;79.75;100633.22;1741011;79;20992;-79
2022/10/27 00:52:51;;;;;;;7.37;5.15;;;;;;;11.84;79.73;100634.06;1765511;79;20964;-79
2022/10/27 00:55:26;;;;;;;7.87;5.08;;;;;;;11.82;79.68;100635.52;1769906;79;20985;-79
2022/10/27 00:57:55;;;;;;;7.08;5.30;;;;;;;11.81;79.66;100641.77;1774425;79;21019;-79
2022/10/27 01:00:22;;;;;;;7.28;5.10;;;;;;;11.80;79.66;100644.06;1766788;79;21797;-79
2022/10/27 01:02:48;;;;;;;8.80;5.08;;;;;;;11.80;79.65;100644.55;1745271;80;21457;-79
2022/10/27 01:05:19;;;;;;;10.75;5.28;;;;;;;11.79;79.67;100646.33;1771407;78;20970;-79
2022/10/27 01:07:47;;;;;;;6.72;5.22;;;;;;;11.81;79.69;100646.23;1773643;79;21417;-79
2022/10/27 01:10:14;;;;;;;9.53;5.10;;;;;;;11.83;79.66;100645.61;1756959;79;21571;-79
2022/10/27 01:12:41;;;;;;;14.38;5.80;;;;;;;11.85;79.62;100651.63;1771178;79;21979;-79
2022/10/27 01:15:08;;;;;;;9.50;5.35;;;;;;;11.87;79.60;100653.20;1738881;80;20997;-79
2022/10/27 01:18:04;;;;;;;8.30;5.20;;;;;;;11.89;79.55;100653.08;1722567;82;20968;-79
2022/10/27 01:20:50;;;;;;;9.05;5.00;;;;;;;11.90;79.53;100658.24;1783516;79;20970;-79
2022/10/27 01:23:33;;;;;;;7.70;4.83;;;;;;;11.87;79.48;100657.17;1788622;79;21037;-79
2022/10/27 01:26:24;;;;;;;6.65;4.97;;;;;;;11.86;79.51;100659.44;1777541;79;21809;-79
2022/10/27 01:29:10;;;;;;;10.55;5.58;;;;;;;11.86;79.54;100661.24;1709499;82;21122;-78
2022/10/27 01:31:44;;;;;;;10.30;5.50;;;;;;;11.83;79.56;100661.02;1727370;79;21029;-78
2022/10/27 01:34:31;;;;;;;9.27;6.03;;;;;;;11.84;79.66;100661.37;1780235;79;20961;-79
2022/10/27 01:37:23;;;;;;;5.83;4.90;;;;;;;11.85;79.67;100662.20;1782438;79;21103;-78
2022/10/27 01:40:02;;;;;;;10.20;5.42;;;;;;;11.86;79.65;100663.89;1780913;79;22445;-78
2022/10/27 01:42:51;;;;;;;9.20;5.40;;;;;;;11.86;79.61;100667.37;1761071;78;21606;-78
2022/10/27 01:45:26;;;;;;;10.03;5.60;;;;;;;11.87;79.59;100671.73;1781891;78;21546;-78
2022/10/27 01:47:54;;;;;;;10.78;5.83;;;;;;;11.87;79.60;100669.54;1781055;80;21450;-79
2022/10/27 01:50:34;;;;;;;7.83;5.33;;;;;;;11.87;79.60;100673.50;1785232;78;20995;-78
2022/10/27 01:53:01;;;;;;;13.60;6.12;;;;;;;11.86;79.61;100677.96;1771801;79;21912;-79
2022/10/27 01:56:05;;;;;;;8.73;5.95;;;;;;;11.84;79.61;100675.92;1777395;79;20946;-79
2022/10/27 01:58:53;;;;;;;8.40;5.65;;;;;;;11.82;79.62;100676.53;1779957;79;21048;-78
2022/10/27 02:01:40;;;;;;;10.32;5.95;;;;;;;11.84;79.63;100679.05;1773189;79;21027;-78
2022/10/27 02:04:46;;;;;;;11.95;6.00;;;;;;;11.83;79.61;100680.86;1775782;79;20941;-78
2022/10/27 02:07:25;;;;;;;;;;;;;;;11.81;79.62;100678.83;1777639;79;21848;-78
2022/10/27 02:10:02;;;;;;;9.60;6.00;;;;;;;11.81;79.66;100688.09;1787004;79;20139;-77
2022/10/27 02:12:37;;;;;;;8.50;5.92;;;;;;;11.79;79.69;100687.34;1765913;79;21310;-77
2022/10/27 02:15:09;;;;;;;9.78;6.30;;;;;;;11.78;79.69;100686.98;1747505;81;21050;-78
2022/10/27 02:17:38;;;;;;;10.30;6.30;;;;;;;11.78;79.74;100688.31;1744420;78;21464;-78
2022/10/27 02:20:10;;;;;;;9.05;6.37;;;;;;;11.78;79.76;100686.98;1785558;79;21902;-78
2022/10/27 02:22:37;;;;;;;8.43;6.08;;;;;;;11.80;79.72;100685.09;1776814;78;20949;-77
2022/10/27 02:25:04;;;;;;;10.82;6.92;;;;;;;11.78;79.70;100687.47;1788026;77;21030;-77
2022/10/27 02:27:37;;;;;;;9.23;6.20;;;;;;;11.77;79.72;100691.89;1752856;80;21525;-78
2022/10/27 02:30:05;;;;;;;11.38;7.00;;;;;;;11.78;79.75;100694.92;1770046;79;21523;-78
2022/10/27 02:32:33;;;;;;;10.45;6.08;;;;;;;11.76;79.74;100691.53;1778777;79;21008;-78
2022/10/27 02:35:00;;;;;;;7.80;5.05;;;;;;;11.78;79.80;100702.02;1727869;80;21513;-78
2022/10/27 02:37:32;;;;;;;12.23;6.15;;;;;;;11.78;79.77;100704.67;1717820;82;20961;-78
2022/10/27 02:39:58;;;;;;;10.10;7.15;;;;;;;11.76;79.73;100702.13;1763734;79;21588;-78
2022/10/27 02:42:26;;;;;;;8.98;6.97;;;;;;;11.72;79.74;100702.86;1768197;79;36206;-78
2022/10/27 02:44:52;;;;;;;12.37;7.12;;;;;;;11.74;79.79;100710.19;1773345;79;21898;-78
2022/10/27 02:47:19;;;;;;;11.90;7.35;;;;;;;11.74;79.75;100702.25;1740332;81;21419;-78
2022/10/27 02:49:45;;;;;;;14.87;7.78;;;;;;;11.72;79.80;100708.15;1780176;79;21053;-78
2022/10/27 02:52:12;;;;;;;15.30;8.38;;;;;;;11.73;79.79;100708.98;1776239;79;21032;-78
2022/10/27 02:54:41;;;;;;;10.03;7.90;;;;;;;11.73;79.78;100714.28;1794110;79;20957;-78
2022/10/27 02:57:07;;;;;;;10.63;8.13;;;;;;;11.73;79.73;100711.63;1778346;79;22471;-78
2022/10/27 02:59:34;;;;;;;13.18;7.90;;;;;;;11.71;79.63;100716.21;1756037;79;21356;-78
2022/10/27 03:02:01;;;;;;;14.38;9.65;;;;;;;11.67;79.68;100714.75;1777364;79;21049;-78
2022/10/27 03:04:27;;;;;;;15.90;9.63;;;;;;;11.65;79.69;100714.03;1769414;79;20984;-79
2022/10/27 03:06:55;;;;;;;15.05;9.18;;;;;;;11.63;79.74;100719.94;1796749;79;21167;-78
2022/10/27 03:09:22;;;;;;;11.63;8.95;;;;;;;11.61;79.80;100720.06;1777990;79;21940;-78
2022/10/27 03:11:48;;;;;;;10.80;8.93;;;;;;;11.60;79.83;100722.83;1746448;81;21491;-78
2022/10/27 03:14:15;;;;;;;14.47;9.95;;;;;;;11.61;79.88;100729.80;1740062;80;21560;-78
2022/10/27 03:16:42;;;;;;;15.55;10.65;;;;;;;11.60;79.82;100727.64;1769935;79;21115;-78
2022/10/27 03:19:09;;;;;;;14.30;10.68;;;;;;;11.57;79.86;100727.86;1784197;79;21064;-78
2022/10/27 03:21:36;;;;;;;16.27;11.33;;;;;;;11.57;79.86;100724.38;1765933;79;21931;-79
2022/10/27 03:24:03;;;;;;;13.08;11.65;;;;;;;11.53;79.89;100723.78;1792369;79;21029;-78
2022/10/27 03:26:29;;;;;;;16.55;12.07;;;;;;;11.54;79.91;100728.11;1795906;79;21005;-78
2022/10/27 03:28:58;;;;;;;16.65;12.28;;;;;;;11.54;79.91;100729.43;1787318;79;20958;-79
2022/10/27 03:31:24;;;;;;;13.75;10.90;;;;;;;11.55;79.90;100735.56;1788531;79;21360;-78
2022/10/27 03:33:50;;;;;;;13.70;12.10;;;;;;;11.55;79.90;100736.88;1763610;79;22480;-78
2022/10/27 03:36:17;;;;;;;17.55;13.35;;;;;;;11.52;79.94;100742.42;1764785;79;20933;-78
2022/10/27 03:38:44;;;;;;;17.92;14.18;;;;;;;11.49;80.00;100743.99;1780588;79;20993;-78
2022/10/27 03:41:10;;;;;;;18.00;14.03;;;;;;;11.45;80.04;100749.98;1787998;79;21013;-78
2022/10/27 03:43:39;;;;;;;18.57;14.50;;;;;;;11.42;80.10;100750.22;1786817;79;21151;-78
2022/10/27 03:46:05;;;;;;;20.50;14.85;;;;;;;11.42;80.16;100748.42;1782052;79;22513;-77
2022/10/27 03:48:32;;;;;;;17.87;13.93;;;;;;;11.43;80.16;100756.71;1777689;79;21020;-78
2022/10/27 03:50:58;;;;;;;18.90;15.23;;;;;;;11.44;80.21;100764.16;1781436;79;21000;-78
2022/10/27 03:53:25;;;;;;;18.55;14.90;;;;;;;11.43;80.20;100748.78;1776746;79;21039;-78
2022/10/27 03:55:51;;;;;;;21.37;16.02;;;;;;;11.45;80.20;100757.91;1785277;79;21518;-79
2022/10/27 03:58:19;;;;;;;18.60;16.62;;;;;;;11.44;80.22;100757.07;1789908;79;22473;-78
2022/10/27 04:00:46;;;;;;;20.35;17.05;;;;;;;11.44;80.20;100768.13;1779027;79;21464;-78
2022/10/27 04:03:12;;;;;;;25.55;17.45;;;;;;;11.43;80.23;100758.03;1788832;78;21001;-78
2022/10/27 04:05:39;;;;;;;22.73;17.73;;;;;;;11.43;80.23;100768.62;1793885;79;21026;-78
2022/10/27 04:08:06;;;;;;;23.10;17.98;;;;;;;11.42;80.23;100766.94;1785271;79;20996;-78
2022/10/27 04:10:35;;;;;;;24.07;18.42;;;;;;;11.42;80.21;100762.97;1791301;78;22621;-78
2022/10/27 04:13:02;;;;;;;26.35;19.80;;;;;;;11.42;80.19;100768.73;1777578;78;21107;-77
2022/10/27 04:15:30;;;;;;;24.40;18.95;;;;;;;11.39;80.23;100771.63;1777992;79;21076;-78
2022/10/27 04:17:58;;;;;;;20.62;17.48;;;;;;;11.38;80.30;100769.43;1796291;79;21068;-78
2022/10/27 04:20:25;;;;;;;23.47;19.70;;;;;;;11.38;80.36;100770.75;1758728;78;21029;-78
2022/10/27 04:22:54;;;;;;;25.82;18.90;;;;;;;11.37;80.35;100773.04;1749661;79;21954;-78
2022/10/27 04:25:21;;;;;;;24.18;19.10;;;;;;;11.39;80.41;100774.27;1754424;79;21082;-78
2022/10/27 04:27:48;;;;;;;22.60;19.00;;;;;;;11.42;80.42;100774.03;1785724;78;21083;-79
2022/10/27 04:30:14;;;;;;;21.57;18.57;;;;;;;11.43;80.37;100775.23;1766681;79;20997;-78
2022/10/27 04:32:40;;;;;;;23.85;19.10;;;;;;;11.41;80.34;100780.28;1789120;78;21040;-78
2022/10/27 04:35:08;;;;;;;29.35;19.82;;;;;;;11.41;80.36;100781.12;1784798;78;21812;-78
2022/10/27 04:37:34;;;;;;;23.45;18.73;;;;;;;11.41;80.34;100785.09;1788804;78;21095;-78
2022/10/27 04:40:01;;;;;;;20.37;18.00;;;;;;;11.41;80.36;100784.25;1789144;78;21067;-77
2022/10/27 04:42:28;;;;;;;26.02;18.07;;;;;;;11.41;80.34;100795.67;1754820;79;21050;-78
2022/10/27 04:44:54;;;;;;;24.80;18.85;;;;;;;11.42;80.37;100794.70;1779647;78;20993;-78
2022/10/27 04:47:21;;;;;;;23.95;18.62;;;;;;;11.42;80.36;100798.67;1773783;79;22394;-78
2022/10/27 04:49:47;;;;;;;21.73;17.73;;;;;;;11.45;80.32;100802.87;1745598;79;21035;-79
2022/10/27 04:52:14;;;;;;;23.65;18.80;;;;;;;11.46;80.33;100808.05;1764614;79;20976;-78
2022/10/27 04:54:41;;;;;;;21.30;18.40;;;;;;;11.45;80.29;100809.01;1748767;81;21084;-79
2022/10/27 04:57:09;;;;;;;21.73;18.27;;;;;;;11.46;80.33;100809.38;1736691;82;20922;-78
2022/10/27 04:59:36;;;;;;;26.25;18.73;;;;;;;11.47;80.26;100812.38;1767528;79;21975;-79
2022/10/27 05:02:02;;;;;;;21.62;18.23;;;;;;;11.47;80.23;100815.02;1761817;79;20984;-78
2022/10/27 05:04:29;;;;;;;24.72;18.15;;;;;;;11.46;80.20;100820.44;1780543;79;20988;-78
2022/10/27 05:06:56;;;;;;;21.27;17.05;;;;;;;11.43;80.22;100809.61;1776132;79;21147;-79
2022/10/27 05:09:22;;;;;;;22.07;18.82;;;;;;;11.42;80.28;100818.52;1762126;79;21058;-78
2022/10/27 05:11:49;;;;;;;21.52;17.82;;;;;;;11.43;80.28;100818.88;1775675;79;21870;-78
2022/10/27 05:14:16;;;;;;;22.60;18.30;;;;;;;11.46;80.30;100821.76;1777819;79;20997;-78
2022/10/27 05:16:43;;;;;;;22.13;18.50;;;;;;;11.49;80.28;100823.34;1739480;79;21029;-78
2022/10/27 05:19:09;;;;;;;23.77;18.55;;;;;;;11.47;80.23;100822.95;1810012;77;21427;-78
2022/10/27 05:21:38;;;;;;;21.93;17.75;;;;;;;11.51;80.21;100829.36;1763546;79;20924;-78
2022/10/27 05:24:05;;;;;;;24.18;19.23;;;;;;;11.51;80.06;100829.36;1791524;78;22711;-77
2022/10/27 05:26:33;;;;;;;21.95;18.35;;;;;;;11.51;79.98;100830.69;1772440;79;21048;-77
2022/10/27 05:28:59;;;;;;;24.63;18.67;;;;;;;11.51;80.03;100833.33;1792342;79;20942;-76
2022/10/27 05:31:26;;;;;;;23.67;18.10;;;;;;;11.52;79.94;100835.85;1748031;80;21003;-78
2022/10/27 05:33:53;;;;;;;22.90;18.15;;;;;;;11.51;79.93;100847.39;1721296;81;21185;-77
2022/10/27 05:36:19;;;;;;;22.45;17.85;;;;;;;11.50;79.90;100855.45;1692928;82;21953;-77
2022/10/27 05:38:46;;;;;;;22.22;18.15;;;;;;;11.51;79.93;100855.33;1722715;82;21112;-77
2022/10/27 05:41:12;;;;;;;24.12;17.62;;;;;;;11.53;79.86;100860.50;1784006;79;21582;-78
2022/10/27 05:43:40;;;;;;;23.98;17.35;;;;;;;11.53;79.86;100850.76;1780083;78;20997;-78
2022/10/27 05:46:07;;;;;;;19.37;17.10;;;;;;;11.53;79.82;100860.02;1780302;79;20973;-74
2022/10/27 05:48:34;;;;;;;20.27;16.77;;;;;;;11.53;79.78;100861.82;1733013;81;21647;-77
2022/10/27 05:51:01;;;;;;;18.27;15.68;;;;;;;11.53;79.83;100864.47;1767018;79;21020;-77
2022/10/27 05:53:27;;;;;;;19.92;16.12;;;;;;;11.55;79.76;100868.67;1765494;79;21044;-76
2022/10/27 05:55:55;;;;;;;16.23;14.40;;;;;;;11.54;79.70;100873.61;1787297;79;20997;-77
2022/10/27 05:58:22;;;;;;;20.72;16.35;;;;;;;11.56;79.69;100869.52;1728605;82;21043;-79
2022/10/27 06:00:48;;;;;;;19.95;16.42;;;;;;;11.56;79.67;100869.03;1729974;82;21849;-79
2022/10/27 06:03:20;;;;;;;19.85;16.17;;;;;;;11.56;79.58;100871.69;1756247;79;20997;-78
2022/10/27 06:05:50;;;;;;;22.45;16.90;;;;;;;11.55;79.57;100872.64;1738726;80;21124;-78
2022/10/27 06:08:17;;;;;;;20.30;16.00;;;;;;;11.59;79.54;100877.25;1707540;82;21134;-77
2022/10/27 06:10:45;;;;;;;20.77;15.38;;;;;;;11.60;79.52;100881.09;1740174;80;21606;-78
2022/10/27 06:13:14;;;;;;;20.25;15.98;;;;;;;11.64;79.48;100879.89;1701340;83;21051;-77
2022/10/27 06:15:41;;;;;;;18.67;16.02;;;;;;;11.65;79.42;100887.34;1716035;82;20965;-78
2022/10/27 06:18:09;;;;;;;18.62;15.32;;;;;;;11.65;79.32;100888.67;1736618;81;21542;-78
2022/10/27 06:20:36;;;;;;;19.00;15.13;;;;;;;11.67;79.30;100888.06;1746064;81;21618;-79
2022/10/27 06:23:03;;;;;;;20.43;14.87;;;;;;;11.70;79.26;100901.09;1773752;79;21653;-78
2022/10/27 06:25:30;;;;;;;17.67;15.50;;;;;;;11.72;79.22;100895.19;1781332;79;21771;-79
2022/10/27 06:27:56;;;;;;;20.88;15.53;;;;;;;11.75;79.17;100899.76;1792914;78;21123;-79
2022/10/27 06:30:23;;;;;;;21.62;16.02;;;;;;;11.75;78.89;100892.30;1781937;78;21000;-78
2022/10/27 06:32:51;;;;;;;16.73;14.70;;;;;;;11.73;78.85;100896.88;1742958;79;21087;-79
2022/10/27 06:35:18;;;;;;;22.10;16.37;;;;;;;11.73;78.79;100902.16;1800145;78;21119;-78
2022/10/27 06:37:45;;;;;;;19.75;15.60;;;;;;;11.70;78.65;100900.61;1752931;79;21980;-75
2022/10/27 06:40:15;;;;;;;20.20;16.23;;;;;;;11.70;78.64;100905.89;1766573;79;21066;-78
2022/10/27 06:42:42;;;;;;;21.48;16.25;;;;;;;11.68;78.49;100909.62;1763527;79;21499;-78
2022/10/27 06:45:12;;;;;;;16.23;14.55;;;;;;;11.66;78.37;100903.10;1755356;81;21162;-78
2022/10/27 06:47:40;;;;;;;19.23;15.32;;;;;;;11.66;78.37;100905.75;1771792;78;21509;-78
2022/10/27 06:50:08;;;;;;;18.70;15.40;;;;;;;11.67;78.38;100915.37;1751812;79;21900;-78
2022/10/27 06:52:38;;;;;;;16.80;14.30;;;;;;;11.68;78.27;100907.82;1781817;79;21023;-79
2022/10/27 06:55:05;;;;;;;18.07;15.55;;;;;;;11.67;78.08;100913.20;1785099;79;21400;-80
2022/10/27 06:57:40;;;;;;;18.27;13.90;;;;;;;11.67;78.14;100909.23;1777616;79;21525;-80
2022/10/27 07:00:09;;;;;;;16.77;14.83;;;;;;;11.68;78.06;100917.56;1758295;79;21105;-79
2022/10/27 07:02:36;;;;;;;19.27;13.20;;;;;;;11.69;78.02;100921.89;1754130;81;22715;-80
2022/10/27 07:05:05;;;;;;;17.82;13.78;;;;;;;11.70;77.97;100918.28;1779999;78;21001;-80
2022/10/27 07:07:32;;;;;;;16.85;12.98;;;;;;;11.71;77.87;100918.64;1793261;79;20973;-79
2022/10/27 07:09:58;;;;;;;20.27;13.48;;;;;;;11.73;77.78;100922.02;1774280;78;20962;-80
2022/10/27 07:12:26;;;;;;;16.27;13.20;;;;;;;11.74;77.75;100931.64;1740958;80;21372;-79
2022/10/27 07:14:53;;;;;;;19.07;13.62;;;;;;;11.75;77.74;100931.52;1751107;79;21844;-76
2022/10/27 07:17:21;;;;;;;16.35;12.93;;;;;;;11.79;77.74;100942.73;1756528;80;21922;-79
2022/10/27 07:19:48;;;;;;;15.68;12.23;;;;;;;11.83;77.71;100936.27;1763737;79;21515;-79
2022/10/27 07:22:15;;;;;;;15.53;12.93;;;;;;;11.85;77.55;100934.34;1756950;79;21114;-79
2022/10/27 07:24:42;;;;;;;16.07;12.85;;;;;;;11.87;77.46;100935.09;1735171;80;21082;-79
2022/10/27 07:27:09;;;;;;;15.20;12.35;;;;;;;11.87;77.31;100935.55;1754696;81;22381;-79
2022/10/27 07:29:37;;;;;;;18.73;12.88;;;;;;;11.90;77.27;100943.27;1762824;79;20993;-80
2022/10/27 07:32:04;;;;;;;18.60;12.53;;;;;;;11.90;77.18;100936.66;1741043;81;21000;-79
2022/10/27 07:34:30;;;;;;;16.87;12.55;;;;;;;11.89;76.93;100943.76;1738929;81;21498;-78
2022/10/27 07:36:58;;;;;;;15.03;11.90;;;;;;;11.87;76.86;100943.48;1765205;79;20933;-78
2022/10/27 07:39:26;;;;;;;15.40;12.45;;;;;;;11.87;76.86;100950.98;1720177;81;22552;-79
2022/10/27 07:41:53;;;;;;;15.13;11.95;;;;;;;11.88;76.83;100950.50;1761195;79;21229;-80
2022/10/27 07:44:20;;;;;;;13.85;11.63;;;;;;;11.91;76.77;100952.91;1779925;79;21066;-76
2022/10/27 07:46:47;;;;;;;15.80;12.65;;;;;;;11.91;76.69;100952.91;1719391;80;21566;-77
2022/10/27 07:49:13;;;;;;;14.33;12.28;;;;;;;11.93;76.66;100954.46;1764026;79;21052;-77
2022/10/27 07:51:40;;;;;;;14.53;11.28;;;;;;;11.96;76.67;100959.52;1763502;78;21947;-78
2022/10/27 07:54:06;;;;;;;15.93;11.60;;;;;;;11.98;76.55;100959.42;1776821;79;21444;-78
2022/10/27 07:56:35;;;;;;;14.55;11.45;;;;;;;11.98;76.41;100960.27;1738577;79;21161;-79
2022/10/27 07:59:01;;;;;;;16.02;11.68;;;;;;;12.01;76.50;100963.16;1760285;79;21444;-79
2022/10/27 08:01:28;;;;;;;14.23;10.43;;;;;;;12.06;76.47;100972.05;1786560;78;21429;-79
2022/10/27 08:03:54;;;;;;;16.97;10.75;;;;;;;12.06;76.12;100971.58;1781310;78;22222;-78
2022/10/27 08:06:21;;;;;;;11.50;9.68;;;;;;;12.07;76.07;100964.02;1780362;79;21052;-78
2022/10/27 08:08:48;;;;;;;15.70;10.60;;;;;;;12.08;76.07;100972.33;1773102;79;20955;-79
2022/10/27 08:11:16;;;;;;;17.15;11.68;;;;;;;12.10;75.94;100974.38;1771387;79;20992;-77
2022/10/27 08:13:44;;;;;;;13.72;10.88;;;;;;;12.11;75.87;100977.86;1798487;78;21033;-78
2022/10/27 08:16:11;;;;;;;15.85;10.18;;;;;;;12.13;75.86;100982.55;1750584;79;22396;-80
2022/10/27 08:18:38;;;;;;;15.13;10.30;;;;;;;12.15;75.80;100980.63;1728448;79;21137;-77
2022/10/27 08:21:05;;;;;;;13.00;10.15;;;;;;;12.17;75.74;100984.02;1772326;80;21050;-79
2022/10/27 08:23:32;;;;;;;12.55;9.98;;;;;;;12.18;75.59;100983.06;1783641;78;21036;-79
2022/10/27 08:25:58;;;;;;;18.27;10.32;;;;;;;12.19;75.65;100980.30;1768096;80;20872;-78
2022/10/27 08:28:25;;;;;;;12.20;9.38;;;;;;;12.22;75.65;100985.34;1777024;80;21773;-78
2022/10/27 08:30:53;;;;;;;12.43;9.70;;;;;;;12.25;75.62;100993.05;1740853;80;20985;-79
2022/10/27 08:33:21;;;;;;;11.35;9.60;;;;;;;12.26;75.55;100992.11;1754533;80;20953;-79
2022/10/27 08:35:49;;;;;;;11.57;9.18;;;;;;;12.28;75.50;100995.96;1721837;82;21370;-79
2022/10/27 08:38:16;;;;;;;13.88;9.50;;;;;;;12.29;75.48;100990.54;1733000;82;21054;-79
2022/10/27 08:41:09;;;;;;;11.50;9.30;;;;;;;12.30;75.39;100994.03;1729571;81;21836;-79
2022/10/27 08:44:21;;;;;;;13.90;8.58;;;;;;;12.33;75.42;100991.14;1780084;79;20960;-79
2022/10/27 08:46:56;;;;;;;12.13;8.48;;;;;;;12.38;75.41;100996.94;1749629;79;20953;-79
2022/10/27 08:49:45;;;;;;;11.50;8.90;;;;;;;12.40;75.05;100996.81;1770486;79;21505;-79
2022/10/27 08:52:50;;;;;;;11.78;8.58;;;;;;;12.38;74.93;100994.30;1774212;79;21005;-79
2022/10/27 08:55:23;;;;;;;9.30;8.25;;;;;;;12.40;74.91;100991.52;1742974;81;21952;-77
2022/10/27 08:58:12;;;;;;;12.00;8.50;;;;;;;12.44;74.87;100997.77;1782511;79;21182;-78
2022/10/27 09:00:55;;;;;;;11.83;8.00;;;;;;;12.44;74.76;101000.42;1757214;79;21183;-78
2022/10/27 09:03:37;;;;;;;10.53;7.92;;;;;;;12.47;74.42;100998.04;1788836;79;21044;-77
2022/10/27 09:06:21;;;;;;;10.85;7.53;;;;;;;12.43;74.27;101006.69;1765263;79;20985;-77
2022/10/27 09:09:11;;;;;;;10.48;7.22;;;;;;;12.40;74.12;101004.77;1783588;79;21827;-77
2022/10/27 09:12:09;;;;;;;9.83;7.15;;;;;;;12.40;74.11;101000.80;1763335;80;21040;-78
2022/10/27 09:15:12;;;;;;;11.22;8.00;;;;;;;12.45;74.07;101003.91;1750405;81;20960;-78
2022/10/27 09:18:06;;;;;;;9.83;7.37;;;;;;;12.46;74.07;101003.82;1771048;79;21020;-78
2022/10/27 09:20:43;;;;;;;7.53;6.72;;;;;;;12.53;74.13;101003.69;1797377;79;20933;-78
2022/10/27 09:23:16;;;;;;;8.28;6.83;;;;;;;12.54;73.51;101005.85;1745617;79;21913;-78
2022/10/27 09:25:44;;;;;;;12.30;6.70;;;;;;;12.53;73.52;101007.66;1785321;79;21045;-78
2022/10/27 09:28:16;;;;;;;9.75;7.25;;;;;;;12.54;73.50;100997.91;1787963;79;21063;-78
2022/10/27 09:30:42;;;;;;;8.35;6.45;;;;;;;12.57;73.57;101007.80;1761003;79;21419;-78
2022/10/27 09:33:18;;;;;;;10.23;6.70;;;;;;;12.58;73.69;101007.32;1797345;78;20920;-78
2022/10/27 09:35:44;;;;;;;8.75;6.60;;;;;;;12.58;73.67;101009.48;1780876;79;21831;-78
2022/10/27 09:38:13;;;;;;;8.80;6.80;;;;;;;12.58;73.47;101015.27;1787027;79;21039;-79
2022/10/27 09:40:41;;;;;;;7.55;6.65;;;;;;;12.59;73.40;101020.93;1758038;79;21028;-79
2022/10/27 09:43:07;;;;;;;7.95;6.53;;;;;;;12.61;73.40;101018.52;1751329;79;21024;-78
2022/10/27 09:45:35;;;;;;;8.70;6.30;;;;;;;12.61;73.07;101014.54;1787735;79;21025;-78
2022/10/27 09:48:07;;;;;;;10.32;6.90;;;;;;;12.65;73.14;101014.32;1743035;79;21858;-78
2022/10/27 09:50:58;;;;;;;10.98;6.15;;;;;;;12.68;73.18;101017.56;1775789;79;21159;-78
2022/10/27 09:53:41;;;;;;;11.15;6.50;;;;;;;12.70;73.08;101020.94;1764361;79;21506;-78
2022/10/27 09:56:15;;;;;;;9.78;6.42;;;;;;;12.73;73.00;101023.34;1691310;82;20990;-77
2022/10/27 09:58:59;;;;;;;9.73;5.97;;;;;;;12.76;72.83;101023.60;1773861;78;21521;-77
2022/10/27 10:01:40;;;;;;;9.98;5.92;;;;;;;12.77;72.72;101019.50;1753280;79;21840;-75
2022/10/27 10:04:17;;;;;;;7.87;6.03;;;;;;;12.81;72.67;101028.05;1738657;79;20972;-75
2022/10/27 10:06:46;;;;;;;7.90;5.83;;;;;;;12.80;72.31;101026.36;1744554;79;21130;-75
2022/10/27 10:09:22;;;;;;;8.15;5.87;;;;;;;12.80;72.34;101025.03;1732565;80;21058;-75
2022/10/27 10:11:50;;;;;;;6.83;5.60;;;;;;;12.81;72.17;101025.39;1778570;78;21376;-76
2022/10/27 10:14:22;;;;;;;8.63;5.40;;;;;;;12.83;71.99;101032.25;1765398;80;21817;-75
2022/10/27 10:16:50;;;;;;;8.40;5.60;;;;;;;12.85;71.99;101032.16;1765898;78;21693;-74
2022/10/27 10:19:22;;;;;;;6.53;5.00;;;;;;;12.88;72.00;101031.91;1782641;79;21096;-73
2022/10/27 10:21:56;;;;;;;7.10;5.28;;;;;;;12.94;72.04;101030.11;1777270;79;24473;-77
2022/10/27 10:24:27;;;;;;;8.90;5.47;;;;;;;12.97;71.40;101023.72;1785860;79;21005;-76
2022/10/27 10:26:56;;;;;;;6.95;5.37;;;;;;;12.98;71.14;101030.70;1766174;80;22977;-77
2022/10/27 10:29:45;;;;;;;8.33;5.47;;;;;;;13.00;71.05;101027.44;1751149;79;20990;-77
2022/10/27 10:32:20;;;;;;;7.05;5.60;;;;;;;13.03;70.84;101021.92;1727721;82;21049;-77
2022/10/27 10:34:49;;;;;;;8.98;5.70;;;;;;;13.06;70.93;101025.64;1702975;81;21056;-77
2022/10/27 10:37:39;;;;;;;10.55;5.28;;;;;;;13.11;70.83;101023.45;1690904;82;21509;-77
2022/10/27 10:40:19;;;;;;;8.25;5.10;;;;;;;13.16;70.60;101023.94;1710424;82;20941;-77
2022/10/27 10:42:49;;;;;;;7.28;5.42;;;;;;;13.20;69.80;101024.56;1766819;78;21043;-76
2022/10/27 10:45:26;;;;;;;7.22;5.33;;;;;;;13.24;69.49;101018.06;1791308;79;21055;-76
2022/10/27 10:48:03;;;;;;;8.53;5.42;;;;;;;13.29;69.20;101015.38;1761810;79;21058;-75
2022/10/27 10:50:30;;;;;;;8.43;5.30;;;;;;;13.37;69.35;101013.44;1754033;80;20822;-77
2022/10/27 10:52:58;;;;;;;7.42;5.10;;;;;;;13.46;69.11;101020.17;1765891;81;22481;-77
2022/10/27 10:55:28;;;;;;;6.92;5.00;;;;;;;13.54;69.12;101012.92;1750713;79;20993;-77
2022/10/27 10:57:56;;;;;;;8.20;4.90;;;;;;;13.62;68.13;101001.69;1739236;79;20991;-76
2022/10/27 11:00:26;;;;;;;8.00;5.30;;;;;;;13.66;68.19;101007.92;1783931;79;21526;-76
2022/10/27 11:03:03;;;;;;;7.25;4.90;;;;;;;13.75;68.29;101008.98;1765303;80;21051;-76
2022/10/27 11:05:32;;;;;;;7.40;4.90;;;;;;;13.86;67.87;101014.24;1739962;81;22459;-76
2022/10/27 11:07:59;;;;;;;7.47;4.37;;;;;;;13.92;66.74;101011.09;1749094;80;21024;-77
2022/10/27 11:10:40;;;;;;;6.83;4.25;;;;;;;13.92;66.58;101015.56;1777893;80;21150;-77
2022/10/27 11:13:17;;;;;;;10.20;4.30;;;;;;;13.95;66.49;101016.14;1782858;79;21045;-77
2022/10/27 11:15:59;;;;;;;8.20;4.58;;;;;;;14.00;66.23;101015.77;1778493;79;21043;-76
2022/10/27 11:18:34;;;;;;;5.92;4.62;;;;;;;14.05;66.33;101017.53;1781894;79;22484;-76
2022/10/27 11:21:12;;;;;;;7.20;4.58;;;;;;;14.15;66.64;101018.45;1768949;79;21045;-76
2022/10/27 11:23:48;;;;;;;6.08;4.10;;;;;;;14.24;66.56;101021.66;1737737;80;21497;-77
2022/10/27 11:26:18;;;;;;;7.70;4.72;;;;;;;14.31;66.20;101027.31;1757344;80;21537;-76
2022/10/27 11:29:07;;;;;;;7.22;4.50;;;;;;;14.33;65.94;101023.54;1734671;80;21064;-77
2022/10/27 11:32:08;;;;;;;6.12;3.95;;;;;;;14.45;66.04;101024.83;1784749;79;22525;-76
2022/10/27 11:35:15;;;;;;;6.75;4.05;;;;;;;14.49;64.79;101019.63;1809746;78;20882;-76